Pleasant Hill, Missouri
Current Conditions -  °F | °C
As of 6:53 PM on Wednesday 22 Oct 2014 (Local Time) from KLXT Reporting Station
Clear Clear  
Wind Chill: 66°   Ceiling: Unl
Heat Index: 66°   Visibility: 10mi
Dew Point: 51°   Wind: 7mph
Humidity: 59%   Direction: 140°SE
Pressure: 30.12"   Gusts: NA
Location:  38.79°N, 94.27°W
Report Text: KLXT 222353Z AUTO 14006KT 10SM CLR 19/11 A3012 RMK AO2 SLP198 T01890106 10222 20183 52002
Loading
Personal Weather Stations






























Interactive Weather Map New forecast layout! Learn more

10-Day Weather Forecast

Advertisements
Track Severe Weather on mobile